createdAt,value
2022-12-29T00:00:07.737Z,0.00
2022-12-29T00:01:07.783Z,0.00
2022-12-29T00:02:07.702Z,0.00
2022-12-29T00:03:07.748Z,0.00
2022-12-29T00:04:12.916Z,0.00
2022-12-29T00:05:07.684Z,0.00
2022-12-29T00:06:07.660Z,0.00
2022-12-29T00:07:07.652Z,0.00
2022-12-29T00:08:07.637Z,0.00
2022-12-29T00:09:07.625Z,0.00
2022-12-29T00:10:07.615Z,0.00
2022-12-29T00:11:07.606Z,0.00
2022-12-29T00:12:07.612Z,0.00
2022-12-29T00:13:07.588Z,0.00
2022-12-29T00:14:07.582Z,0.00
2022-12-29T00:15:07.565Z,0.00
2022-12-29T00:16:07.642Z,0.00
2022-12-29T00:17:07.547Z,0.00
2022-12-29T00:18:07.538Z,0.00
2022-12-29T00:19:07.529Z,0.00
2022-12-29T00:20:07.517Z,0.00
2022-12-29T00:21:07.503Z,0.00
2022-12-29T00:22:07.493Z,0.00
2022-12-29T00:23:07.484Z,0.00
2022-12-29T00:24:07.473Z,0.00
2022-12-29T00:25:07.469Z,0.00
2022-12-29T00:26:07.462Z,0.00
2022-12-29T00:27:07.440Z,0.00
2022-12-29T00:28:07.956Z,0.00
2022-12-29T00:29:07.413Z,0.00
2022-12-29T00:30:07.406Z,0.00
2022-12-29T00:31:07.517Z,0.00
2022-12-29T00:32:07.392Z,0.00
2022-12-29T00:33:07.379Z,0.00
2022-12-29T00:34:07.366Z,0.00
2022-12-29T00:35:07.367Z,0.00
2022-12-29T00:36:07.353Z,0.00
2022-12-29T00:37:07.343Z,0.00
2022-12-29T00:38:07.334Z,0.00
2022-12-29T00:39:07.309Z,0.00
2022-12-29T00:40:07.319Z,0.00
2022-12-29T00:41:07.296Z,0.00
2022-12-29T00:42:07.293Z,0.00
2022-12-29T00:43:07.275Z,0.00
2022-12-29T00:44:07.324Z,0.00
2022-12-29T00:45:07.298Z,0.00
2022-12-29T00:46:07.288Z,0.00
2022-12-29T00:47:07.309Z,0.00
2022-12-29T00:48:07.232Z,0.00
2022-12-29T00:49:07.209Z,0.00
2022-12-29T00:50:07.211Z,0.00
2022-12-29T00:51:07.193Z,0.00
2022-12-29T00:52:07.395Z,0.00
2022-12-29T00:53:07.171Z,0.00
2022-12-29T00:54:07.221Z,0.00
2022-12-29T00:55:07.149Z,0.00
2022-12-29T00:56:07.147Z,0.00
2022-12-29T00:57:07.133Z,0.00
2022-12-29T00:58:07.131Z,0.00
2022-12-29T00:59:07.203Z,0.00
2022-12-29T01:00:07.193Z,0.00
2022-12-29T01:01:07.279Z,0.00
2022-12-29T01:02:07.171Z,0.00
2022-12-29T01:03:07.081Z,0.00
2022-12-29T01:04:07.054Z,0.00
2022-12-29T01:05:07.048Z,0.00
2022-12-29T01:06:07.047Z,0.00
2022-12-29T01:07:07.026Z,0.00
2022-12-29T01:08:07.023Z,0.00
2022-12-29T01:09:07.005Z,0.00
2022-12-29T01:10:06.995Z,0.00
2022-12-29T01:11:06.985Z,0.00
2022-12-29T01:12:06.978Z,0.00
2022-12-29T01:13:06.961Z,0.00
2022-12-29T01:14:06.977Z,0.00
2022-12-29T01:15:06.937Z,0.00
2022-12-29T01:16:06.986Z,0.00
2022-12-29T01:17:06.920Z,0.00
2022-12-29T01:18:06.913Z,0.00
2022-12-29T01:19:06.901Z,0.00
2022-12-29T01:20:06.901Z,0.00
2022-12-29T01:21:06.882Z,0.00
2022-12-29T01:22:06.878Z,0.00
2022-12-29T01:23:06.864Z,0.00
2022-12-29T01:24:06.855Z,0.00
2022-12-29T01:25:06.839Z,0.00
2022-12-29T01:26:06.833Z,0.00
2022-12-29T01:27:06.844Z,0.00
2022-12-29T01:28:06.811Z,0.00
2022-12-29T01:29:06.804Z,0.00
2022-12-29T01:30:06.800Z,0.00
2022-12-29T01:31:06.825Z,0.00
2022-12-29T01:32:06.772Z,0.00
2022-12-29T01:33:06.758Z,0.00
2022-12-29T01:34:06.759Z,0.00
2022-12-29T01:35:06.753Z,0.00
2022-12-29T01:36:06.734Z,0.00
2022-12-29T01:37:06.718Z,0.00
2022-12-29T01:38:06.711Z,0.00
2022-12-29T01:39:06.694Z,0.00
2022-12-29T01:40:06.687Z,0.00
2022-12-29T01:41:06.678Z,0.00
2022-12-29T01:42:06.669Z,0.00
2022-12-29T01:43:06.656Z,0.00
2022-12-29T01:44:06.645Z,0.00
2022-12-29T01:45:06.636Z,0.00
2022-12-29T01:46:06.665Z,0.00
2022-12-29T01:47:06.614Z,0.00
2022-12-29T01:48:06.611Z,0.00
2022-12-29T01:49:06.595Z,0.00
2022-12-29T01:50:06.590Z,0.00
2022-12-29T01:51:06.575Z,0.00
2022-12-29T01:52:06.563Z,0.00
2022-12-29T01:53:06.581Z,0.00
2022-12-29T01:54:06.556Z,0.00
2022-12-29T01:55:06.546Z,0.00
2022-12-29T01:56:06.563Z,0.00
2022-12-29T01:57:06.517Z,0.00
2022-12-29T01:58:06.520Z,0.00
2022-12-29T01:59:06.495Z,0.00
2022-12-29T02:00:06.502Z,0.00
2022-12-29T02:01:06.505Z,0.00
2022-12-29T02:02:06.480Z,0.00
2022-12-29T02:03:06.527Z,0.00
2022-12-29T02:04:06.440Z,0.00
2022-12-29T02:05:06.433Z,0.00
2022-12-29T02:06:06.432Z,0.00
2022-12-29T02:07:06.404Z,0.00
2022-12-29T02:08:06.407Z,0.00
2022-12-29T02:09:06.394Z,0.00
2022-12-29T02:10:06.391Z,0.00
2022-12-29T02:11:06.390Z,0.00
2022-12-29T02:12:06.358Z,0.00
2022-12-29T02:13:06.357Z,0.00
2022-12-29T02:14:06.339Z,0.00
2022-12-29T02:15:06.343Z,0.00
2022-12-29T02:16:06.350Z,0.00
2022-12-29T02:17:06.304Z,0.00
2022-12-29T02:18:06.302Z,0.00
2022-12-29T02:19:06.287Z,0.00
2022-12-29T02:20:06.311Z,0.00
2022-12-29T02:21:06.267Z,0.00
2022-12-29T02:22:06.269Z,0.00
2022-12-29T02:23:12.329Z,0.00
2022-12-29T02:24:06.240Z,0.00
2022-12-29T02:25:06.227Z,0.00
2022-12-29T02:26:06.215Z,0.00
2022-12-29T02:27:06.221Z,0.00
2022-12-29T02:28:06.189Z,0.00
2022-12-29T02:29:06.209Z,0.00
2022-12-29T02:30:06.185Z,0.00
2022-12-29T02:31:06.161Z,0.00
2022-12-29T02:32:06.183Z,0.00
2022-12-29T02:33:06.148Z,0.00
2022-12-29T02:34:06.146Z,0.00
2022-12-29T02:35:06.121Z,0.00
2022-12-29T02:36:06.109Z,0.00
2022-12-29T02:37:06.104Z,0.00
2022-12-29T02:38:06.089Z,0.00
2022-12-29T02:39:06.118Z,0.00
2022-12-29T02:40:06.079Z,0.00
2022-12-29T02:41:06.066Z,0.00
2022-12-29T02:42:06.049Z,0.00
2022-12-29T02:43:06.042Z,0.00
2022-12-29T02:44:06.037Z,0.00
2022-12-29T02:45:06.035Z,0.00
2022-12-29T02:46:06.040Z,0.00
2022-12-29T02:47:06.007Z,0.00
2022-12-29T02:48:05.993Z,0.00
2022-12-29T02:49:05.991Z,0.00
2022-12-29T02:50:05.979Z,0.00
2022-12-29T02:51:05.981Z,0.00
2022-12-29T02:52:05.975Z,0.00
2022-12-29T02:53:05.947Z,0.00
2022-12-29T02:54:05.929Z,0.00
2022-12-29T02:55:05.923Z,0.00
2022-12-29T02:56:05.925Z,0.00
2022-12-29T02:57:05.899Z,0.00
2022-12-29T02:58:05.893Z,0.00
2022-12-29T02:59:05.878Z,0.00
2022-12-29T03:00:05.945Z,0.00
2022-12-29T03:01:05.921Z,0.00
2022-12-29T03:02:06.037Z,0.00
2022-12-29T03:03:05.984Z,0.00
2022-12-29T03:04:05.843Z,0.00
2022-12-29T03:05:06.041Z,0.00
2022-12-29T03:06:05.815Z,0.00
2022-12-29T03:07:05.812Z,0.00
2022-12-29T03:08:05.797Z,0.00
2022-12-29T03:09:05.823Z,0.00
2022-12-29T03:10:05.763Z,0.00
2022-12-29T03:11:05.760Z,0.00
2022-12-29T03:12:05.749Z,0.00
2022-12-29T03:13:05.733Z,0.00
2022-12-29T03:14:05.728Z,0.00
2022-12-29T03:15:05.718Z,0.00
2022-12-29T03:16:05.801Z,0.00
2022-12-29T03:17:05.796Z,0.00
2022-12-29T03:18:12.857Z,0.00
2022-12-29T03:20:09.631Z,0.00
2022-12-29T03:21:09.612Z,0.00
2022-12-29T03:23:13.607Z,0.00
2022-12-29T03:24:13.534Z,0.00
2022-12-29T03:26:17.472Z,0.00
2022-12-29T03:27:17.456Z,0.00
2022-12-29T03:29:10.333Z,0.00
2022-12-29T03:30:10.311Z,0.00
2022-12-29T03:32:14.265Z,0.00
2022-12-29T03:33:14.255Z,0.00
2022-12-29T03:35:18.184Z,0.00
2022-12-29T03:36:18.165Z,0.00
2022-12-29T03:38:22.136Z,0.00
2022-12-29T03:39:22.083Z,0.00
2022-12-29T03:41:26.032Z,0.00
2022-12-29T03:42:26.005Z,0.00
2022-12-29T03:44:29.945Z,0.00
2022-12-29T03:45:29.958Z,0.00
2022-12-29T03:47:33.875Z,0.00
2022-12-29T03:48:33.900Z,0.00
2022-12-29T03:50:37.809Z,0.00
2022-12-29T03:51:37.781Z,0.00
2022-12-29T03:53:41.716Z,0.00
2022-12-29T03:54:41.697Z,0.00
2022-12-29T03:56:45.643Z,0.00
2022-12-29T03:57:45.631Z,0.00
2022-12-29T03:59:38.487Z,0.00
2022-12-29T04:00:38.484Z,0.00
2022-12-29T04:02:42.719Z,0.00
2022-12-29T04:03:42.423Z,0.00
2022-12-29T04:05:46.344Z,0.00
2022-12-29T04:06:46.318Z,0.00
2022-12-29T04:08:39.188Z,0.00
2022-12-29T04:09:39.173Z,0.00
2022-12-29T04:11:43.127Z,0.00
2022-12-29T04:12:43.099Z,0.00
2022-12-29T04:14:47.065Z,0.00
2022-12-29T04:15:47.111Z,0.00
2022-12-29T04:17:50.968Z,0.00
2022-12-29T04:18:50.954Z,0.00
2022-12-29T04:20:54.895Z,0.00
2022-12-29T04:21:54.873Z,0.00
2022-12-29T04:23:58.826Z,0.00
2022-12-29T04:24:58.806Z,0.00
2022-12-29T04:27:02.747Z,0.00
2022-12-29T04:28:02.730Z,0.00
2022-12-29T04:30:07.185Z,0.00
2022-12-29T04:31:07.182Z,0.00
2022-12-29T04:33:00.239Z,0.00
2022-12-29T04:34:00.242Z,0.00
2022-12-29T04:36:04.166Z,0.00
2022-12-29T04:37:04.142Z,0.00
2022-12-29T04:38:57.036Z,0.00
2022-12-29T04:39:56.995Z,0.00
2022-12-29T04:42:00.945Z,0.00
2022-12-29T04:43:00.924Z,0.00
2022-12-29T04:45:04.858Z,0.00
2022-12-29T04:46:04.871Z,0.00
2022-12-29T04:48:08.809Z,0.00
2022-12-29T04:49:08.768Z,0.00
2022-12-29T04:51:12.739Z,0.00
2022-12-29T04:52:12.721Z,0.00
2022-12-29T04:54:16.651Z,0.00
2022-12-29T04:55:16.636Z,0.00
2022-12-29T04:57:20.603Z,0.00
2022-12-29T04:58:22.865Z,0.00
2022-12-29T05:00:24.508Z,0.00
2022-12-29T05:01:24.599Z,0.00
2022-12-29T05:03:28.517Z,0.00
2022-12-29T05:04:28.415Z,0.00
2022-12-29T05:06:32.361Z,0.00
2022-12-29T05:07:32.339Z,0.00
2022-12-29T05:09:25.207Z,0.00
2022-12-29T05:10:25.193Z,0.00
2022-12-29T05:12:29.137Z,0.00
2022-12-29T05:13:29.119Z,0.00
2022-12-29T05:15:33.052Z,0.00
2022-12-29T05:16:33.088Z,0.00
2022-12-29T05:18:36.981Z,0.00
2022-12-29T05:19:36.969Z,0.00
2022-12-29T05:21:40.915Z,0.00
2022-12-29T05:22:40.890Z,0.00
2022-12-29T05:24:44.824Z,0.00
2022-12-29T05:25:44.813Z,0.00
2022-12-29T05:27:48.773Z,0.00
2022-12-29T05:28:48.734Z,0.00
2022-12-29T05:30:52.675Z,0.00
2022-12-29T05:31:52.680Z,0.00
2022-12-29T05:33:56.610Z,0.00
2022-12-29T05:34:56.585Z,0.00
2022-12-29T05:37:00.545Z,0.00
2022-12-29T05:38:00.508Z,0.00
2022-12-29T05:40:04.449Z,0.00
2022-12-29T05:41:04.430Z,0.00
2022-12-29T05:43:08.380Z,0.00
2022-12-29T05:44:08.375Z,0.00
2022-12-29T05:46:12.339Z,0.00
2022-12-29T05:47:12.404Z,0.00
2022-12-29T05:49:05.155Z,0.00
2022-12-29T05:50:05.140Z,0.00
2022-12-29T05:52:09.086Z,0.00
2022-12-29T05:53:09.063Z,0.00
2022-12-29T05:55:13.017Z,0.00
2022-12-29T05:56:12.996Z,0.00
2022-12-29T05:58:16.939Z,0.00
2022-12-29T05:59:16.941Z,0.00
2022-12-29T06:01:20.892Z,0.00
2022-12-29T06:02:21.018Z,0.00
2022-12-29T06:04:24.795Z,0.00
2022-12-29T06:05:24.776Z,0.00
2022-12-29T06:07:28.722Z,0.00
2022-12-29T06:08:28.688Z,0.00
2022-12-29T06:10:32.687Z,0.00
2022-12-29T06:11:32.622Z,0.00
2022-12-29T06:13:36.566Z,0.00
2022-12-29T06:14:36.540Z,0.00
2022-12-29T06:16:40.550Z,0.00
2022-12-29T06:17:40.474Z,0.00
2022-12-29T06:19:33.345Z,0.00
2022-12-29T06:20:33.318Z,0.00
2022-12-29T06:22:37.264Z,0.00
2022-12-29T06:23:37.248Z,0.00
2022-12-29T06:25:41.181Z,0.00
2022-12-29T06:26:41.164Z,0.00
2022-12-29T06:28:45.117Z,0.00
2022-12-29T06:29:45.087Z,0.00
2022-12-29T06:31:49.085Z,0.00
2022-12-29T06:32:49.013Z,0.00
2022-12-29T06:34:52.959Z,0.00
2022-12-29T06:35:52.970Z,0.00
2022-12-29T06:37:56.896Z,0.00
2022-12-29T06:38:56.881Z,0.00
2022-12-29T06:41:00.808Z,0.00
2022-12-29T06:42:00.792Z,0.00
2022-12-29T06:44:04.739Z,0.00
2022-12-29T06:45:04.710Z,0.00
2022-12-29T06:47:08.653Z,0.00
2022-12-29T06:48:08.666Z,0.00
2022-12-29T06:50:12.589Z,0.00
2022-12-29T06:51:12.568Z,0.00
2022-12-29T06:53:16.555Z,0.00
2022-12-29T06:54:16.486Z,0.00
2022-12-29T06:56:20.439Z,0.00
2022-12-29T06:57:20.417Z,0.00
2022-12-29T06:59:13.287Z,0.00
2022-12-29T07:00:16.953Z,0.00
2022-12-29T07:02:17.363Z,0.00
2022-12-29T07:03:17.242Z,0.00
2022-12-29T07:05:21.142Z,0.00
2022-12-29T07:06:21.126Z,0.00
2022-12-29T07:08:25.112Z,0.00
2022-12-29T07:09:25.046Z,0.00
2022-12-29T07:11:28.989Z,0.00
2022-12-29T07:12:28.979Z,0.00
2022-12-29T07:14:36.072Z,0.00
2022-12-29T07:15:32.927Z,0.00
2022-12-29T07:17:36.855Z,0.00
2022-12-29T07:18:36.836Z,0.00
2022-12-29T07:20:40.792Z,0.00
2022-12-29T07:23:04.738Z,0.00
2022-12-29T07:24:04.703Z,0.00
2022-12-29T07:25:57.771Z,0.00
2022-12-29T07:26:57.784Z,0.00
2022-12-29T07:28:50.626Z,0.00
2022-12-29T07:29:50.609Z,0.00
2022-12-29T07:31:54.626Z,0.00
2022-12-29T07:32:54.536Z,0.00
2022-12-29T07:34:58.480Z,0.00
2022-12-29T07:35:58.461Z,0.00
2022-12-29T07:38:02.402Z,0.00
2022-12-29T07:39:02.382Z,0.00
2022-12-29T07:41:06.330Z,0.00
2022-12-29T07:42:06.311Z,0.00
2022-12-29T07:44:10.255Z,5.63
2022-12-29T07:45:10.241Z,5.63
2022-12-29T07:47:14.210Z,5.63
2022-12-29T07:48:14.161Z,11.25
2022-12-29T07:50:18.116Z,11.25
2022-12-29T07:51:18.086Z,11.25
2022-12-29T07:53:22.068Z,11.25
2022-12-29T07:54:22.004Z,5.63
2022-12-29T07:56:25.945Z,11.25
2022-12-29T07:57:31.559Z,11.25
2022-12-29T07:59:19.056Z,11.25
2022-12-29T08:00:18.789Z,11.25
2022-12-29T08:02:22.809Z,11.25
2022-12-29T08:03:22.759Z,11.25
2022-12-29T08:05:26.696Z,16.88
2022-12-29T08:06:26.641Z,16.88
2022-12-29T08:08:30.881Z,11.25
2022-12-29T08:09:30.561Z,11.25
2022-12-29T08:11:34.501Z,11.25
2022-12-29T08:12:34.491Z,16.88
2022-12-29T08:14:38.428Z,16.88
2022-12-29T08:15:38.440Z,16.88
2022-12-29T08:17:42.348Z,16.88
2022-12-29T08:18:42.336Z,16.88
2022-12-29T08:20:48.728Z,16.88
2022-12-29T08:21:46.264Z,16.88
2022-12-29T08:23:50.203Z,16.88
2022-12-29T08:24:50.190Z,22.50
2022-12-29T08:26:54.139Z,22.50
2022-12-29T08:27:54.119Z,22.50
2022-12-29T08:29:58.063Z,22.50
2022-12-29T08:30:58.120Z,16.88
2022-12-29T08:33:01.991Z,16.88
2022-12-29T08:34:01.966Z,16.88
2022-12-29T08:36:05.906Z,22.50
2022-12-29T08:37:05.889Z,22.50
2022-12-29T08:38:58.764Z,22.50
2022-12-29T08:39:58.755Z,16.88
2022-12-29T08:42:02.692Z,22.50
2022-12-29T08:43:02.672Z,22.50
2022-12-29T08:45:06.645Z,22.50
2022-12-29T08:46:06.670Z,22.50
2022-12-29T08:48:10.612Z,28.13
2022-12-29T08:49:10.586Z,28.13
2022-12-29T08:51:14.532Z,28.13
2022-12-29T08:52:14.511Z,33.75
2022-12-29T08:54:18.451Z,22.50
2022-12-29T08:55:18.440Z,16.88
2022-12-29T08:57:22.381Z,16.88
2022-12-29T08:58:22.364Z,16.88
2022-12-29T09:00:26.313Z,28.13
2022-12-29T09:01:26.402Z,22.50
2022-12-29T09:04:30.497Z,22.50
2022-12-29T09:05:30.201Z,16.88
2022-12-29T09:06:32.715Z,16.88
2022-12-29T09:07:30.183Z,16.88
2022-12-29T09:08:30.171Z,22.50
2022-12-29T09:09:30.163Z,22.50
2022-12-29T09:10:30.154Z,28.13
2022-12-29T09:11:30.145Z,22.50
2022-12-29T09:12:35.956Z,16.88
2022-12-29T09:13:30.132Z,22.50
2022-12-29T09:14:30.112Z,22.50
2022-12-29T09:15:30.126Z,22.50
2022-12-29T09:16:30.126Z,22.50
2022-12-29T09:17:30.089Z,22.50
2022-12-29T09:18:37.238Z,22.50
2022-12-29T09:20:34.023Z,28.13
2022-12-29T09:21:34.012Z,28.13
2022-12-29T09:23:38.010Z,22.50
2022-12-29T09:24:37.942Z,28.13
2022-12-29T09:26:46.845Z,33.75
2022-12-29T09:27:41.875Z,28.13
2022-12-29T09:29:34.759Z,22.50
2022-12-29T09:30:34.739Z,22.50
2022-12-29T09:32:44.548Z,16.88
2022-12-29T09:33:38.667Z,16.88
2022-12-29T09:35:42.667Z,16.88
2022-12-29T09:36:42.609Z,16.88
2022-12-29T09:38:46.606Z,11.25
2022-12-29T09:39:50.591Z,11.25
2022-12-29T09:41:50.484Z,16.88
2022-12-29T09:42:50.472Z,16.88
2022-12-29T09:44:54.421Z,16.88
2022-12-29T09:45:54.394Z,16.88
2022-12-29T09:47:58.338Z,28.13
2022-12-29T09:48:58.341Z,28.13
2022-12-29T09:51:02.270Z,28.13
2022-12-29T09:52:02.279Z,22.50
2022-12-29T09:54:06.189Z,28.13
2022-12-29T09:55:11.964Z,22.50
2022-12-29T09:57:10.134Z,22.50
2022-12-29T09:58:10.124Z,28.13
2022-12-29T10:00:14.069Z,28.13
2022-12-29T10:01:14.066Z,22.50
2022-12-29T10:03:18.113Z,16.88
2022-12-29T10:04:17.979Z,28.13
2022-12-29T10:06:21.923Z,56.25
2022-12-29T10:07:30.551Z,67.50
2022-12-29T10:09:14.778Z,67.50
2022-12-29T10:10:14.775Z,61.88
2022-12-29T10:12:18.720Z,45.00
2022-12-29T10:13:18.695Z,45.00
2022-12-29T10:15:22.643Z,45.00
2022-12-29T10:16:22.654Z,50.63
2022-12-29T10:18:26.577Z,61.88
2022-12-29T10:19:32.739Z,67.50
2022-12-29T10:21:30.502Z,73.13
2022-12-29T10:22:30.480Z,73.13
2022-12-29T10:24:34.438Z,73.13
2022-12-29T10:25:34.414Z,73.13
2022-12-29T10:27:38.352Z,84.38
2022-12-29T10:28:38.334Z,90.00
2022-12-29T10:30:42.294Z,95.63
2022-12-29T10:31:42.361Z,95.63
2022-12-29T10:33:46.217Z,90.00
2022-12-29T10:34:46.196Z,90.00
2022-12-29T10:36:50.145Z,73.13
2022-12-29T10:37:50.124Z,73.13
2022-12-29T10:39:43.012Z,73.13
2022-12-29T10:40:42.981Z,73.13
2022-12-29T10:42:46.945Z,84.38
2022-12-29T10:43:46.924Z,90.00
2022-12-29T10:45:50.893Z,106.88
2022-12-29T10:46:50.854Z,112.50
2022-12-29T10:48:54.799Z,112.50
2022-12-29T10:49:54.784Z,106.88
2022-12-29T10:51:58.735Z,101.25
2022-12-29T10:52:58.710Z,106.88
2022-12-29T10:55:02.690Z,123.75
2022-12-29T10:56:02.660Z,129.38
2022-12-29T10:58:06.598Z,123.75
2022-12-29T10:59:06.612Z,129.38
2022-12-29T11:01:10.610Z,140.63
2022-12-29T11:02:10.713Z,129.38
2022-12-29T11:04:14.450Z,123.75
2022-12-29T11:05:14.440Z,123.75
2022-12-29T11:07:22.190Z,129.38
2022-12-29T11:08:18.369Z,123.75
2022-12-29T11:10:22.317Z,123.75
2022-12-29T11:11:22.301Z,123.75
2022-12-29T11:13:26.280Z,135.00
2022-12-29T11:14:26.248Z,135.00
2022-12-29T11:16:30.226Z,129.38
2022-12-29T11:17:30.187Z,140.63
2022-12-29T11:19:23.065Z,146.25
2022-12-29T11:20:23.044Z,135.00
2022-12-29T11:22:27.571Z,151.88
2022-12-29T11:23:27.177Z,135.00
2022-12-29T11:25:31.103Z,118.13
2022-12-29T11:26:34.453Z,123.75
2022-12-29T11:28:35.043Z,129.38
2022-12-29T11:29:35.012Z,129.38
2022-12-29T11:31:39.008Z,151.88
2022-12-29T11:32:38.950Z,140.63
2022-12-29T11:34:43.038Z,129.38
2022-12-29T11:35:42.896Z,129.38
2022-12-29T11:37:46.882Z,163.13
2022-12-29T11:38:46.822Z,163.13
2022-12-29T11:40:50.777Z,168.75
2022-12-29T11:41:50.750Z,146.25
2022-12-29T11:43:54.701Z,123.75
2022-12-29T11:44:54.679Z,106.88
2022-12-29T11:46:58.620Z,101.25
2022-12-29T11:47:58.634Z,95.63
2022-12-29T11:49:51.496Z,78.75
2022-12-29T11:50:51.473Z,78.75
2022-12-29T11:52:55.409Z,67.50
2022-12-29T11:53:55.396Z,61.88
2022-12-29T11:55:59.353Z,67.50
2022-12-29T11:56:59.329Z,84.38
2022-12-29T11:58:52.211Z,90.00
2022-12-29T11:59:52.181Z,78.75
2022-12-29T12:01:56.268Z,118.13
2022-12-29T12:02:56.208Z,118.13
2022-12-29T12:05:00.451Z,157.50
2022-12-29T12:06:00.439Z,95.63
2022-12-29T12:08:04.400Z,112.50
2022-12-29T12:09:04.378Z,118.13
2022-12-29T12:11:08.336Z,157.50
2022-12-29T12:12:08.299Z,180.00
2022-12-29T12:14:12.249Z,157.50
2022-12-29T12:15:12.232Z,202.50
2022-12-29T12:17:16.197Z,180.00
2022-12-29T12:18:16.209Z,174.38
2022-12-29T12:20:20.125Z,185.63
2022-12-29T12:21:20.110Z,180.00
2022-12-29T12:23:24.058Z,146.25
2022-12-29T12:24:24.057Z,129.38
2022-12-29T12:26:28.025Z,129.38
2022-12-29T12:27:27.975Z,129.38
2022-12-29T12:29:20.857Z,118.13
2022-12-29T12:30:20.858Z,123.75
2022-12-29T12:32:24.790Z,123.75
2022-12-29T12:33:24.781Z,129.38
2022-12-29T12:35:28.738Z,135.00
2022-12-29T12:36:28.710Z,140.63
2022-12-29T12:38:32.665Z,129.38
2022-12-29T12:39:32.646Z,123.75
2022-12-29T12:41:36.595Z,112.50
2022-12-29T12:42:36.572Z,106.88
2022-12-29T12:44:40.524Z,101.25
2022-12-29T12:45:40.510Z,95.63
2022-12-29T12:47:44.455Z,84.38
2022-12-29T12:48:44.437Z,90.00
2022-12-29T12:50:48.381Z,101.25
2022-12-29T12:51:48.373Z,123.75
2022-12-29T12:53:52.355Z,123.75
2022-12-29T12:54:52.313Z,135.00
2022-12-29T12:56:56.254Z,135.00
2022-12-29T12:57:56.238Z,140.63
2022-12-29T12:59:49.110Z,135.00
2022-12-29T13:00:49.095Z,140.63
2022-12-29T13:02:53.288Z,146.25
2022-12-29T13:03:53.089Z,163.13
2022-12-29T13:05:56.991Z,151.88
2022-12-29T13:06:56.961Z,123.75
2022-12-29T13:08:49.842Z,112.50
2022-12-29T13:09:49.828Z,112.50
2022-12-29T13:11:53.785Z,123.75
2022-12-29T13:12:53.763Z,101.25
2022-12-29T13:14:57.712Z,84.38
2022-12-29T13:15:57.741Z,84.38
2022-12-29T13:18:01.652Z,95.63
2022-12-29T13:19:01.625Z,95.63
2022-12-29T13:21:05.570Z,112.50
2022-12-29T13:22:06.906Z,112.50
2022-12-29T13:24:09.716Z,106.88
2022-12-29T13:25:09.520Z,101.25
2022-12-29T13:27:13.448Z,101.25
2022-12-29T13:28:13.440Z,95.63
2022-12-29T13:30:17.384Z,90.00
2022-12-29T13:31:17.425Z,78.75
2022-12-29T13:33:22.019Z,61.88
2022-12-29T13:34:21.290Z,50.63
2022-12-29T13:36:25.249Z,33.75
2022-12-29T13:37:26.930Z,28.13
2022-12-29T13:39:21.045Z,39.38
2022-12-29T13:40:18.103Z,50.63
2022-12-29T13:42:22.049Z,84.38
2022-12-29T13:43:22.030Z,90.00
2022-12-29T13:45:25.977Z,101.25
2022-12-29T13:46:26.001Z,101.25
2022-12-29T13:48:29.909Z,101.25
2022-12-29T13:49:29.891Z,84.38
2022-12-29T13:51:33.860Z,84.38
2022-12-29T13:52:33.838Z,84.38
2022-12-29T13:54:38.141Z,78.75
2022-12-29T13:55:38.151Z,67.50
2022-12-29T13:57:42.086Z,61.88
2022-12-29T13:58:42.062Z,56.25
2022-12-29T14:00:46.006Z,45.00
2022-12-29T14:01:46.156Z,39.38
2022-12-29T14:03:50.253Z,39.38
2022-12-29T14:04:49.966Z,45.00
2022-12-29T14:06:53.898Z,50.63
2022-12-29T14:07:53.878Z,45.00
2022-12-29T14:09:46.759Z,45.00
2022-12-29T14:10:46.742Z,56.25
2022-12-29T14:12:50.754Z,61.88
2022-12-29T14:13:50.690Z,67.50
2022-12-29T14:15:54.652Z,67.50
2022-12-29T14:16:54.612Z,67.50
2022-12-29T14:18:58.568Z,67.50
2022-12-29T14:19:58.534Z,67.50
2022-12-29T14:22:02.481Z,67.50
2022-12-29T14:23:02.496Z,61.88
2022-12-29T14:25:06.415Z,61.88
2022-12-29T14:26:06.415Z,61.88
2022-12-29T14:28:10.352Z,50.63
2022-12-29T14:29:10.324Z,50.63
2022-12-29T14:31:14.317Z,56.25
2022-12-29T14:32:14.258Z,56.25
2022-12-29T14:34:18.214Z,50.63
2022-12-29T14:35:18.195Z,45.00
2022-12-29T14:37:22.141Z,39.38
2022-12-29T14:38:22.144Z,39.38
2022-12-29T14:40:26.095Z,39.38
2022-12-29T14:41:26.069Z,39.38
2022-12-29T14:43:30.011Z,50.63
2022-12-29T14:44:30.057Z,50.63
2022-12-29T14:46:34.037Z,56.25
2022-12-29T14:47:33.924Z,56.25
2022-12-29T14:49:26.814Z,50.63
2022-12-29T14:50:26.784Z,50.63
2022-12-29T14:52:30.770Z,50.63
2022-12-29T14:53:30.733Z,45.00
2022-12-29T14:55:34.685Z,33.75
2022-12-29T14:56:34.677Z,28.13
2022-12-29T14:58:38.638Z,28.13
2022-12-29T14:59:38.658Z,22.50
2022-12-29T15:01:42.799Z,22.50
2022-12-29T15:02:42.673Z,16.88
2022-12-29T15:04:46.492Z,16.88
2022-12-29T15:05:46.473Z,16.88
2022-12-29T15:07:50.453Z,11.25
2022-12-29T15:08:50.401Z,11.25
2022-12-29T15:10:54.376Z,11.25
2022-12-29T15:11:54.334Z,11.25
2022-12-29T15:13:58.294Z,11.25
2022-12-29T15:14:58.269Z,5.63
2022-12-29T15:17:02.307Z,5.63
2022-12-29T15:18:02.219Z,5.63
2022-12-29T15:20:06.202Z,5.63
2022-12-29T15:21:06.164Z,5.63
2022-12-29T15:23:10.089Z,0.00
2022-12-29T15:24:10.065Z,0.00
2022-12-29T15:26:14.011Z,0.00
2022-12-29T15:27:14.006Z,0.00
2022-12-29T15:29:06.893Z,0.00
2022-12-29T15:30:06.868Z,0.00
2022-12-29T15:31:06.859Z,0.00
2022-12-29T15:32:06.877Z,0.00
2022-12-29T15:33:06.856Z,0.00
2022-12-29T15:34:06.878Z,0.00
2022-12-29T15:35:06.837Z,0.00
2022-12-29T15:36:06.813Z,0.00
2022-12-29T15:37:06.822Z,0.00
2022-12-29T15:38:06.796Z,0.00
2022-12-29T15:39:06.790Z,0.00
2022-12-29T15:40:06.776Z,0.00
2022-12-29T15:41:06.774Z,0.00
2022-12-29T15:42:06.769Z,0.00
2022-12-29T15:43:06.752Z,0.00
2022-12-29T15:44:06.741Z,0.00
2022-12-29T15:45:11.088Z,0.00
2022-12-29T15:46:06.763Z,0.00
2022-12-29T15:47:06.714Z,0.00
2022-12-29T15:48:06.704Z,0.00
2022-12-29T15:49:06.688Z,0.00
2022-12-29T15:50:06.690Z,0.00
2022-12-29T15:51:06.681Z,0.00
2022-12-29T15:52:06.666Z,0.00
2022-12-29T15:53:06.659Z,0.00
2022-12-29T15:54:06.661Z,0.00
2022-12-29T15:55:06.642Z,0.00
2022-12-29T15:56:06.636Z,0.00
2022-12-29T15:57:06.620Z,0.00
2022-12-29T15:58:06.608Z,0.00
2022-12-29T15:59:06.595Z,0.00
2022-12-29T16:00:06.593Z,0.00
2022-12-29T16:01:06.589Z,0.00
2022-12-29T16:02:12.166Z,0.00
2022-12-29T16:03:06.701Z,0.00
2022-12-29T16:04:06.550Z,0.00
2022-12-29T16:05:17.757Z,0.00
2022-12-29T16:06:06.532Z,0.00
2022-12-29T16:07:06.540Z,0.00
2022-12-29T16:08:06.517Z,0.00
2022-12-29T16:09:06.527Z,0.00
2022-12-29T16:10:06.500Z,0.00
2022-12-29T16:11:06.487Z,0.00
2022-12-29T16:12:06.479Z,0.00
2022-12-29T16:13:06.480Z,0.00
2022-12-29T16:14:06.467Z,0.00
2022-12-29T16:15:06.444Z,0.00
2022-12-29T16:16:06.444Z,0.00
2022-12-29T16:17:06.453Z,0.00
2022-12-29T16:18:06.420Z,0.00
2022-12-29T16:19:06.403Z,0.00
2022-12-29T16:20:06.404Z,0.00
2022-12-29T16:21:06.410Z,0.00
2022-12-29T16:22:06.380Z,0.00
2022-12-29T16:23:06.369Z,0.00
2022-12-29T16:24:06.354Z,0.00
2022-12-29T16:25:06.351Z,0.00
2022-12-29T16:26:06.342Z,0.00
2022-12-29T16:27:06.334Z,0.00
2022-12-29T16:28:06.322Z,0.00
2022-12-29T16:29:06.314Z,0.00
2022-12-29T16:30:06.303Z,0.00
2022-12-29T16:31:06.369Z,0.00
2022-12-29T16:32:06.292Z,0.00
2022-12-29T16:33:06.286Z,0.00
2022-12-29T16:34:06.262Z,0.00
2022-12-29T16:35:06.253Z,0.00
2022-12-29T16:36:06.245Z,0.00
2022-12-29T16:37:06.236Z,0.00
2022-12-29T16:38:06.227Z,0.00
2022-12-29T16:39:06.212Z,0.00
2022-12-29T16:40:06.207Z,0.00
2022-12-29T16:41:06.198Z,0.00
2022-12-29T16:42:06.183Z,0.00
2022-12-29T16:43:06.176Z,0.00
2022-12-29T16:44:06.154Z,0.00
2022-12-29T16:45:06.153Z,0.00
2022-12-29T16:46:06.195Z,0.00
2022-12-29T16:47:06.143Z,0.00
2022-12-29T16:48:06.146Z,0.00
2022-12-29T16:49:06.116Z,0.00
2022-12-29T16:50:06.108Z,0.00
2022-12-29T16:51:06.106Z,0.00
2022-12-29T16:52:06.088Z,0.00
2022-12-29T16:53:06.091Z,0.00
2022-12-29T16:54:06.069Z,0.00
2022-12-29T16:55:06.059Z,0.00
2022-12-29T16:56:06.051Z,0.00
2022-12-29T16:57:06.051Z,0.00
2022-12-29T16:58:06.035Z,0.00
2022-12-29T16:59:06.012Z,0.00
2022-12-29T17:00:06.011Z,0.00
2022-12-29T17:01:06.050Z,0.00
2022-12-29T17:02:06.138Z,0.00
2022-12-29T17:03:06.030Z,0.00
2022-12-29T17:04:05.967Z,0.00
2022-12-29T17:05:05.964Z,0.00
2022-12-29T17:06:05.950Z,0.00
2022-12-29T17:07:05.986Z,0.00
2022-12-29T17:08:05.929Z,0.00
2022-12-29T17:09:05.916Z,0.00
2022-12-29T17:10:05.913Z,0.00
2022-12-29T17:11:05.907Z,0.00
2022-12-29T17:12:11.113Z,0.00
2022-12-29T17:13:05.883Z,0.00